createdAt,value
2019-02-11T00:01:21.264Z,71.50
2019-02-11T00:03:49.939Z,71.70
2019-02-11T00:06:18.669Z,72.00
2019-02-11T00:08:47.432Z,72.30
2019-02-11T00:11:16.117Z,73.00
2019-02-11T00:13:44.812Z,72.70
2019-02-11T00:16:13.534Z,73.50
2019-02-11T00:18:42.668Z,72.70
2019-02-11T00:21:11.335Z,72.90
2019-02-11T00:23:40.069Z,73.10
2019-02-11T00:26:08.740Z,73.00
2019-02-11T00:28:37.407Z,72.70
2019-02-11T00:31:06.124Z,72.60
2019-02-11T00:33:34.810Z,72.60
2019-02-11T00:36:03.467Z,73.70
2019-02-11T00:38:32.336Z,73.30
2019-02-11T00:41:01.083Z,73.30
2019-02-11T00:43:29.756Z,73.50
2019-02-11T00:45:58.499Z,73.20
2019-02-11T00:48:27.177Z,73.10
2019-02-11T00:50:55.879Z,73.20
2019-02-11T00:53:24.624Z,73.00
2019-02-11T00:55:53.281Z,72.40
2019-02-11T00:58:21.966Z,72.30
2019-02-11T01:00:50.752Z,72.10
2019-02-11T01:03:19.486Z,72.00
2019-02-11T01:05:48.167Z,71.60
2019-02-11T01:08:16.930Z,71.90
2019-02-11T01:10:45.601Z,72.40
2019-02-11T01:13:14.364Z,73.20
2019-02-11T01:15:43.079Z,72.60
2019-02-11T01:18:11.757Z,72.70
2019-02-11T01:20:40.423Z,73.30
2019-02-11T01:23:09.179Z,73.00
2019-02-11T01:25:37.941Z,72.80
2019-02-11T01:28:06.701Z,72.60
2019-02-11T01:30:35.622Z,72.90
2019-02-11T01:33:04.300Z,73.10
2019-02-11T01:35:32.986Z,73.00
2019-02-11T01:38:01.840Z,73.00
2019-02-11T01:40:30.589Z,73.30
2019-02-11T01:42:59.267Z,74.00
2019-02-11T01:45:28.054Z,74.10
2019-02-11T01:47:56.723Z,73.30
2019-02-11T01:50:25.394Z,73.10
2019-02-11T01:52:54.141Z,72.70
2019-02-11T01:55:22.853Z,72.90
2019-02-11T01:57:51.523Z,73.20
2019-02-11T02:00:20.444Z,73.50
2019-02-11T02:02:49.078Z,73.90
2019-02-11T02:05:17.779Z,74.00
2019-02-11T02:07:46.502Z,74.20
2019-02-11T02:10:15.392Z,74.00
2019-02-11T02:12:44.077Z,74.20
2019-02-11T02:15:14.303Z,74.20
2019-02-11T02:17:42.948Z,74.20
2019-02-11T02:20:17.453Z,74.20
2019-02-11T02:22:46.132Z,74.20
2019-02-11T02:25:14.828Z,74.50
2019-02-11T02:27:43.668Z,74.60
2019-02-11T02:30:15.506Z,74.40
2019-02-11T02:32:44.167Z,74.30
2019-02-11T02:35:12.880Z,74.20
2019-02-11T02:37:41.577Z,73.70
2019-02-11T02:40:10.630Z,73.80
2019-02-11T02:42:39.450Z,73.90
2019-02-11T02:45:09.319Z,74.10
2019-02-11T02:47:38.005Z,74.10
2019-02-11T02:50:08.955Z,74.10
2019-02-11T02:52:37.641Z,74.00
2019-02-11T02:55:07.849Z,73.70
2019-02-11T02:57:36.594Z,73.70
2019-02-11T03:00:10.695Z,73.90
2019-02-11T03:02:39.388Z,74.10
2019-02-11T03:05:09.241Z,73.80
2019-02-11T03:07:37.920Z,74.20
2019-02-11T03:10:08.989Z,74.30
2019-02-11T03:12:37.719Z,74.20
2019-02-11T03:15:11.157Z,74.30
2019-02-11T03:17:39.808Z,74.30
2019-02-11T03:20:09.367Z,74.30
2019-02-11T03:22:38.055Z,73.60
2019-02-11T03:25:08.195Z,73.30
2019-02-11T03:27:36.928Z,73.00
2019-02-11T03:30:08.727Z,72.80
2019-02-11T03:32:37.437Z,72.80
2019-02-11T03:35:06.248Z,73.10
2019-02-11T03:37:34.934Z,73.20
2019-02-11T03:40:04.586Z,73.10
2019-02-11T03:42:33.329Z,73.30
2019-02-11T03:45:02.017Z,73.70
2019-02-11T03:47:30.689Z,73.70
2019-02-11T03:49:59.427Z,74.00
2019-02-11T03:52:28.123Z,73.70
2019-02-11T03:54:56.849Z,73.90
2019-02-11T03:57:26.399Z,73.80
2019-02-11T03:59:55.187Z,73.60
2019-02-11T04:02:23.923Z,73.50
2019-02-11T04:04:52.651Z,72.80
2019-02-11T04:07:21.310Z,72.30
2019-02-11T04:09:50.005Z,72.50
2019-02-11T04:12:18.795Z,72.50
2019-02-11T04:14:47.475Z,72.60
2019-02-11T04:17:16.148Z,72.70
2019-02-11T04:19:44.918Z,72.70
2019-02-11T04:22:13.593Z,72.70
2019-02-11T04:24:42.391Z,72.60
2019-02-11T04:27:11.119Z,72.50
2019-02-11T04:29:39.774Z,72.60
2019-02-11T04:32:08.453Z,72.70
2019-02-11T04:34:37.163Z,72.60
2019-02-11T04:37:05.855Z,72.40
2019-02-11T04:39:34.537Z,71.80
2019-02-11T04:42:03.288Z,71.10
2019-02-11T04:44:34.012Z,70.80
2019-02-11T04:47:02.287Z,70.50
2019-02-11T04:49:31.119Z,69.60
2019-02-11T04:51:59.854Z,69.30
2019-02-11T04:54:28.471Z,68.60
2019-02-11T04:56:57.199Z,67.30
2019-02-11T04:59:26.718Z,64.90
2019-02-11T05:01:55.390Z,63.20
2019-02-11T05:04:24.105Z,60.50
2019-02-11T05:06:52.856Z,59.20
2019-02-11T05:09:21.568Z,57.90
2019-02-11T05:11:50.309Z,56.90
2019-02-11T05:14:19.031Z,55.90
2019-02-11T05:16:47.702Z,55.30
2019-02-11T05:19:16.396Z,54.70
2019-02-11T05:21:45.072Z,53.80
2019-02-11T05:24:13.754Z,53.50
2019-02-11T05:26:42.465Z,53.20
2019-02-11T05:29:11.130Z,52.80
2019-02-11T05:31:39.782Z,52.60
2019-02-11T05:34:08.531Z,52.50
2019-02-11T05:36:37.210Z,52.40
2019-02-11T05:39:06.380Z,52.30
2019-02-11T05:41:35.126Z,52.40
2019-02-11T05:44:05.829Z,52.40
2019-02-11T05:46:34.144Z,52.30
2019-02-11T05:49:02.894Z,52.60
2019-02-11T05:51:31.521Z,52.60
2019-02-11T05:54:00.195Z,52.30
2019-02-11T05:56:28.960Z,52.20
2019-02-11T05:58:57.646Z,51.60
2019-02-11T06:01:26.390Z,51.60
2019-02-11T06:03:55.126Z,51.30
2019-02-11T06:06:23.870Z,51.30
2019-02-11T06:08:52.562Z,51.10
2019-02-11T06:11:21.313Z,51.50
2019-02-11T06:13:50.024Z,51.40
2019-02-11T06:16:18.713Z,51.30
2019-02-11T06:18:47.484Z,51.80
2019-02-11T06:21:16.172Z,52.10
2019-02-11T06:23:44.827Z,52.10
2019-02-11T06:26:13.547Z,52.30
2019-02-11T06:28:42.620Z,52.60
2019-02-11T06:31:11.297Z,53.30
2019-02-11T06:33:39.985Z,53.70
2019-02-11T06:36:12.293Z,54.40
2019-02-11T06:38:39.078Z,54.40
2019-02-11T06:41:07.853Z,54.50
2019-02-11T06:43:36.539Z,54.20
2019-02-11T06:46:05.238Z,53.50
2019-02-11T06:48:33.954Z,53.10
2019-02-11T06:51:02.659Z,52.90
2019-02-11T06:53:31.357Z,52.60
2019-02-11T06:56:00.119Z,52.50
2019-02-11T06:58:28.811Z,52.50
2019-02-11T07:00:57.483Z,52.20
2019-02-11T07:03:26.272Z,52.00
2019-02-11T07:05:54.952Z,52.00
2019-02-11T07:08:23.608Z,52.00
2019-02-11T07:10:55.627Z,51.70
2019-02-11T07:13:22.764Z,51.50
2019-02-11T07:15:51.444Z,51.10
2019-02-11T07:18:20.153Z,51.00
2019-02-11T07:20:48.822Z,51.60
2019-02-11T07:23:17.496Z,52.00
2019-02-11T07:25:46.239Z,52.10
2019-02-11T07:28:14.937Z,51.90
2019-02-11T07:30:43.602Z,51.70
2019-02-11T07:33:12.316Z,51.80
2019-02-11T07:35:41.003Z,52.00
2019-02-11T07:38:09.697Z,52.30
2019-02-11T07:40:38.394Z,52.20
2019-02-11T07:43:08.739Z,52.00
2019-02-11T07:45:57.494Z,52.20
2019-02-11T07:48:26.156Z,51.70
2019-02-11T07:50:54.819Z,52.00
2019-02-11T07:53:23.538Z,51.60
2019-02-11T07:55:52.218Z,51.50
2019-02-11T07:58:20.908Z,51.60
2019-02-11T08:00:49.629Z,51.30
2019-02-11T08:03:18.305Z,51.10
2019-02-11T08:05:47.052Z,51.10
2019-02-11T08:08:15.810Z,51.50
2019-02-11T08:10:44.485Z,51.40
2019-02-11T08:13:13.176Z,51.50
2019-02-11T08:15:41.900Z,51.90
2019-02-11T08:18:10.587Z,51.80
2019-02-11T08:20:39.265Z,52.10
2019-02-11T08:23:12.939Z,51.90
2019-02-11T08:25:38.294Z,51.70
2019-02-11T08:28:06.962Z,52.00
2019-02-11T08:30:35.716Z,52.00
2019-02-11T08:33:04.397Z,52.10
2019-02-11T08:35:33.090Z,51.70
2019-02-11T08:38:01.962Z,51.80
2019-02-11T08:40:30.646Z,51.70
2019-02-11T08:42:59.357Z,52.00
2019-02-11T08:45:28.097Z,52.10
2019-02-11T08:47:56.749Z,52.20
2019-02-11T08:50:25.433Z,52.40
2019-02-11T08:52:54.178Z,51.60
2019-02-11T08:55:22.934Z,52.00
2019-02-11T08:57:51.655Z,51.90
2019-02-11T09:00:20.422Z,51.90
2019-02-11T09:02:49.162Z,52.20
2019-02-11T09:05:17.835Z,54.90
2019-02-11T09:07:47.387Z,56.70
2019-02-11T09:10:16.088Z,60.00
2019-02-11T09:12:44.858Z,62.00
2019-02-11T09:15:13.750Z,63.60
2019-02-11T09:17:42.490Z,64.60
2019-02-11T09:20:11.466Z,66.20
2019-02-11T09:22:40.193Z,67.80
2019-02-11T09:25:10.499Z,68.90
2019-02-11T09:27:39.192Z,70.90
2019-02-11T09:30:13.980Z,72.40
2019-02-11T09:32:42.658Z,73.10
2019-02-11T09:35:11.333Z,74.00
2019-02-11T09:37:40.076Z,75.40
2019-02-11T09:40:11.736Z,77.00
2019-02-11T09:42:40.509Z,78.80
2019-02-11T09:45:12.589Z,79.50
2019-02-11T09:47:41.282Z,80.80
2019-02-11T09:50:18.555Z,82.10
2019-02-11T09:52:47.248Z,83.10
2019-02-11T09:55:21.558Z,82.10
2019-02-11T09:57:50.296Z,81.50
2019-02-11T10:00:18.953Z,81.30
2019-02-11T10:02:47.664Z,80.80
2019-02-11T10:05:16.376Z,80.10
2019-02-11T10:07:45.043Z,79.70
2019-02-11T10:10:15.022Z,80.00
2019-02-11T10:12:43.807Z,79.30
2019-02-11T10:15:13.497Z,79.50
2019-02-11T10:17:42.301Z,79.60
2019-02-11T10:20:12.737Z,79.80
2019-02-11T10:22:41.619Z,82.90
2019-02-11T10:25:15.987Z,83.50
2019-02-11T10:27:44.652Z,83.50
2019-02-11T10:30:15.018Z,83.70
2019-02-11T10:32:43.877Z,82.50
2019-02-11T10:35:13.284Z,81.50
2019-02-11T10:37:41.922Z,81.30
2019-02-11T10:40:12.247Z,82.20
2019-02-11T10:42:40.911Z,80.80
2019-02-11T10:45:12.118Z,81.50
2019-02-11T10:47:41.827Z,81.60
2019-02-11T10:50:15.940Z,82.30
2019-02-11T10:52:44.771Z,82.20
2019-02-11T10:55:15.610Z,81.00
2019-02-11T10:57:44.314Z,80.80
2019-02-11T11:00:21.741Z,81.30
2019-02-11T11:02:50.401Z,82.00
2019-02-11T11:05:19.157Z,81.30
2019-02-11T11:07:48.485Z,81.10
2019-02-11T11:10:20.245Z,81.50
2019-02-11T11:12:48.957Z,80.90
2019-02-11T11:15:17.764Z,80.70
2019-02-11T11:17:46.425Z,82.20
2019-02-11T11:20:18.456Z,82.40
2019-02-11T11:22:47.317Z,81.20
2019-02-11T11:25:17.590Z,81.10
2019-02-11T11:27:46.241Z,80.60
2019-02-11T11:30:19.146Z,79.80
2019-02-11T11:32:47.902Z,80.90
2019-02-11T11:35:17.589Z,80.90
2019-02-11T11:37:46.390Z,80.40
2019-02-11T11:40:21.786Z,80.50
2019-02-11T11:42:50.489Z,80.40
2019-02-11T11:45:19.963Z,80.00
2019-02-11T11:47:48.621Z,81.00
2019-02-11T11:50:17.667Z,80.80
2019-02-11T11:52:46.335Z,81.50
2019-02-11T11:55:22.671Z,80.90
2019-02-11T11:57:51.341Z,81.00
2019-02-11T12:00:25.266Z,80.80
2019-02-11T12:03:04.122Z,80.90
2019-02-11T12:05:24.635Z,80.80
2019-02-11T12:07:54.432Z,80.90
2019-02-11T12:10:23.302Z,81.30
2019-02-11T12:12:51.972Z,80.70
2019-02-11T12:15:23.182Z,81.20
2019-02-11T12:17:52.123Z,81.20
2019-02-11T12:20:20.896Z,81.50
2019-02-11T12:22:49.597Z,81.60
2019-02-11T12:25:18.713Z,81.90
2019-02-11T12:27:47.472Z,81.80
2019-02-11T12:30:26.581Z,82.10
2019-02-11T12:32:56.296Z,82.30
2019-02-11T12:35:25.400Z,82.20
2019-02-11T12:37:54.121Z,82.80
2019-02-11T12:40:23.223Z,83.10
2019-02-11T12:42:53.465Z,84.00
2019-02-11T12:45:25.727Z,84.50
2019-02-11T12:47:54.450Z,85.00
2019-02-11T12:50:23.178Z,85.10
2019-02-11T12:52:51.932Z,84.00
2019-02-11T12:55:22.185Z,82.70
2019-02-11T12:57:50.855Z,81.80
2019-02-11T13:00:24.212Z,81.10
2019-02-11T13:02:52.915Z,81.70
2019-02-11T13:05:23.859Z,81.80
2019-02-11T13:07:52.212Z,81.70
2019-02-11T13:10:21.279Z,81.70
2019-02-11T13:12:50.421Z,81.50
2019-02-11T13:15:58.582Z,81.00
2019-02-11T13:17:50.406Z,80.90
2019-02-11T13:20:19.567Z,81.00
2019-02-11T13:22:48.661Z,81.00
2019-02-11T13:25:18.218Z,80.70
2019-02-11T13:27:47.170Z,80.50
2019-02-11T13:30:23.883Z,81.20
2019-02-11T13:32:52.579Z,81.80
2019-02-11T13:35:22.891Z,82.30
2019-02-11T13:37:54.972Z,82.20
2019-02-11T13:40:23.042Z,81.80
2019-02-11T13:42:52.379Z,82.30
2019-02-11T13:45:22.043Z,82.50
2019-02-11T13:47:56.368Z,82.80
2019-02-11T13:50:26.095Z,83.20
2019-02-11T13:52:55.225Z,83.60
2019-02-11T13:55:23.985Z,84.10
2019-02-11T13:57:54.068Z,83.20
2019-02-11T14:00:26.138Z,83.10
2019-02-11T14:02:59.043Z,82.60
2019-02-11T14:05:28.575Z,83.30
2019-02-11T14:07:58.379Z,83.80
2019-02-11T14:10:29.667Z,84.40
2019-02-11T14:13:04.070Z,84.90
2019-02-11T14:15:32.727Z,84.90
2019-02-11T14:18:13.475Z,84.60
2019-02-11T14:20:39.927Z,85.20
2019-02-11T14:23:11.677Z,84.60
2019-02-11T14:25:45.679Z,83.50
2019-02-11T14:28:11.538Z,83.20
2019-02-11T14:30:40.542Z,83.10
2019-02-11T14:33:09.257Z,83.20
2019-02-11T14:35:37.961Z,82.80
2019-02-11T14:38:06.671Z,83.30
2019-02-11T14:40:35.366Z,84.50
2019-02-11T14:43:04.067Z,84.70
2019-02-11T14:45:32.796Z,84.20
2019-02-11T14:48:03.044Z,83.90
2019-02-11T14:50:31.703Z,83.20
2019-02-11T14:53:00.427Z,83.20
2019-02-11T14:55:29.135Z,83.10
2019-02-11T14:57:57.861Z,82.40
2019-02-11T15:00:26.566Z,81.50
2019-02-11T15:02:55.304Z,82.80
2019-02-11T15:05:24.224Z,82.80
2019-02-11T15:07:52.904Z,83.60
2019-02-11T15:10:21.580Z,84.30
2019-02-11T15:12:50.235Z,84.60
2019-02-11T15:15:18.970Z,84.40
2019-02-11T15:17:47.656Z,85.00
2019-02-11T15:20:17.043Z,85.60
2019-02-11T15:22:46.547Z,89.30
2019-02-11T15:25:17.012Z,88.80
2019-02-11T15:27:45.689Z,83.80
2019-02-11T15:30:22.157Z,83.10
2019-02-11T15:32:51.182Z,83.80
2019-02-11T15:35:19.819Z,84.60
2019-02-11T15:37:48.544Z,83.90
2019-02-11T15:40:19.966Z,84.80
2019-02-11T15:42:48.640Z,83.20
2019-02-11T15:45:17.411Z,83.30
2019-02-11T15:47:46.057Z,84.40
2019-02-11T15:50:17.870Z,85.50
2019-02-11T15:52:46.669Z,85.90
2019-02-11T15:55:20.115Z,86.10
2019-02-11T15:57:48.756Z,86.60
2019-02-11T16:00:19.376Z,86.70
2019-02-11T16:02:48.046Z,86.60
2019-02-11T16:05:17.004Z,86.40
2019-02-11T16:07:45.892Z,86.50
2019-02-11T16:10:19.966Z,86.30
2019-02-11T16:12:48.721Z,85.60
2019-02-11T16:15:19.214Z,84.70
2019-02-11T16:17:48.064Z,84.50
2019-02-11T16:20:16.758Z,84.40
2019-02-11T16:22:45.495Z,84.80
2019-02-11T16:25:15.580Z,85.30
2019-02-11T16:27:44.234Z,85.80
2019-02-11T16:30:15.877Z,86.40
2019-02-11T16:32:44.538Z,86.70
2019-02-11T16:35:14.937Z,87.00
2019-02-11T16:37:43.819Z,87.00
2019-02-11T16:40:20.920Z,87.00
2019-02-11T16:42:49.644Z,86.90
2019-02-11T16:45:18.390Z,86.70
2019-02-11T16:47:47.039Z,86.80
2019-02-11T16:50:15.770Z,86.70
2019-02-11T16:52:44.475Z,86.70
2019-02-11T16:55:13.190Z,87.10
2019-02-11T16:57:42.186Z,87.10
2019-02-11T17:00:13.441Z,86.90
2019-02-11T17:02:44.793Z,86.50
2019-02-11T17:05:13.854Z,86.20
2019-02-11T17:07:42.579Z,86.00
2019-02-11T17:10:12.766Z,85.10
2019-02-11T17:12:41.582Z,84.40
2019-02-11T17:15:12.295Z,84.90
2019-02-11T17:17:40.944Z,84.30
2019-02-11T17:20:11.599Z,83.90
2019-02-11T17:22:40.250Z,84.50
2019-02-11T17:25:10.318Z,84.50
2019-02-11T17:27:39.055Z,85.30
2019-02-11T17:30:12.850Z,85.20
2019-02-11T17:32:41.538Z,84.70
2019-02-11T17:35:10.731Z,84.50
2019-02-11T17:37:39.417Z,83.90
2019-02-11T17:40:11.843Z,84.30
2019-02-11T17:42:40.682Z,84.00
2019-02-11T17:45:12.476Z,83.70
2019-02-11T17:47:41.119Z,83.90
2019-02-11T17:50:12.717Z,83.50
2019-02-11T17:52:41.408Z,83.40
2019-02-11T17:55:12.356Z,83.70
2019-02-11T17:57:41.417Z,85.70
2019-02-11T18:00:14.835Z,84.00
2019-02-11T18:02:43.784Z,83.60
2019-02-11T18:05:12.584Z,83.50
2019-02-11T18:07:41.264Z,83.60
2019-02-11T18:10:09.935Z,84.30
2019-02-11T18:12:38.634Z,84.50
2019-02-11T18:15:10.395Z,84.70
2019-02-11T18:17:39.078Z,84.60
2019-02-11T18:20:11.297Z,84.40
2019-02-11T18:22:39.962Z,84.70
2019-02-11T18:25:09.649Z,83.90
2019-02-11T18:27:38.407Z,84.00
2019-02-11T18:30:11.205Z,85.30
2019-02-11T18:32:39.921Z,85.10
2019-02-11T18:35:11.591Z,84.60
2019-02-11T18:37:40.271Z,84.10
2019-02-11T18:40:12.107Z,84.60
2019-02-11T18:42:41.175Z,85.30
2019-02-11T18:45:12.423Z,85.70
2019-02-11T18:47:41.689Z,85.70
2019-02-11T18:50:15.395Z,86.40
2019-02-11T18:52:44.301Z,86.30
2019-02-11T18:55:20.680Z,86.30
2019-02-11T18:57:49.344Z,86.50
2019-02-11T19:00:19.936Z,87.00
2019-02-11T19:02:49.344Z,87.50
2019-02-11T19:05:18.060Z,87.10
2019-02-11T19:07:46.802Z,86.90
2019-02-11T19:10:16.852Z,87.10
2019-02-11T19:12:45.510Z,87.90
2019-02-11T19:15:18.182Z,87.80
2019-02-11T19:17:46.953Z,87.50
2019-02-11T19:20:18.756Z,87.80
2019-02-11T19:22:47.449Z,88.20
2019-02-11T19:25:16.248Z,88.20
2019-02-11T19:27:44.861Z,88.20
2019-02-11T19:30:25.681Z,87.70
2019-02-11T19:32:57.284Z,87.30
2019-02-11T19:35:26.055Z,86.60
2019-02-11T19:37:54.766Z,86.80
2019-02-11T19:40:23.699Z,87.30
2019-02-11T19:42:52.507Z,87.10
2019-02-11T19:45:22.581Z,86.80
2019-02-11T19:47:51.254Z,86.20
2019-02-11T19:50:19.946Z,86.30
2019-02-11T19:52:50.756Z,86.70
2019-02-11T19:55:20.745Z,85.90
2019-02-11T19:57:49.413Z,86.00
2019-02-11T20:00:22.956Z,86.00
2019-02-11T20:02:51.624Z,86.10
2019-02-11T20:05:20.536Z,85.50
2019-02-11T20:07:49.242Z,85.30
2019-02-11T20:10:20.386Z,85.10
2019-02-11T20:12:49.058Z,85.10
2019-02-11T20:15:19.972Z,85.00
2019-02-11T20:17:48.647Z,84.40
2019-02-11T20:20:19.095Z,84.50
2019-02-11T20:22:48.010Z,84.90
2019-02-11T20:25:16.677Z,85.00
2019-02-11T20:27:45.362Z,85.20
2019-02-11T20:30:22.298Z,85.90
2019-02-11T20:32:51.043Z,86.00
2019-02-11T20:35:19.789Z,86.10
2019-02-11T20:37:48.689Z,84.70
2019-02-11T20:40:19.760Z,84.70
2019-02-11T20:42:48.440Z,84.70
2019-02-11T20:45:25.324Z,84.90
2019-02-11T20:47:54.068Z,86.70
2019-02-11T20:50:22.867Z,84.80
2019-02-11T20:52:52.230Z,84.30
2019-02-11T20:55:20.876Z,84.70
2019-02-11T20:57:55.448Z,85.00
2019-02-11T21:00:28.596Z,85.70
2019-02-11T21:02:57.247Z,85.70
2019-02-11T21:05:26.667Z,85.40
2019-02-11T21:07:57.771Z,85.80
2019-02-11T21:10:28.516Z,85.70
2019-02-11T21:12:57.862Z,85.80
2019-02-11T21:15:26.635Z,85.60
2019-02-11T21:17:55.311Z,85.30
2019-02-11T21:20:41.541Z,85.30
2019-02-11T21:23:11.199Z,85.60
2019-02-11T21:25:39.857Z,85.20
2019-02-11T21:28:08.817Z,85.20
2019-02-11T21:30:37.497Z,85.00
2019-02-11T21:33:06.165Z,84.90
2019-02-11T21:35:34.931Z,85.20
2019-02-11T21:38:03.667Z,85.10
2019-02-11T21:40:32.429Z,84.70
2019-02-11T21:43:01.136Z,85.00
2019-02-11T21:45:29.817Z,85.20
2019-02-11T21:47:58.476Z,85.40
2019-02-11T21:50:27.227Z,85.10
2019-02-11T21:52:55.869Z,85.50
2019-02-11T21:55:25.438Z,85.50
2019-02-11T21:57:54.183Z,86.00
2019-02-11T22:00:23.465Z,86.10
2019-02-11T22:02:52.168Z,85.50
2019-02-11T22:05:20.998Z,85.40
2019-02-11T22:07:49.764Z,84.90
2019-02-11T22:10:20.246Z,85.50
2019-02-11T22:12:49.104Z,85.40
2019-02-11T22:15:17.788Z,85.30
2019-02-11T22:17:46.450Z,85.30
2019-02-11T22:20:18.467Z,85.50
2019-02-11T22:22:47.132Z,85.50
2019-02-11T22:25:15.874Z,85.50
2019-02-11T22:27:44.626Z,85.40
2019-02-11T22:30:23.899Z,84.90
2019-02-11T22:32:52.639Z,84.70
2019-02-11T22:35:21.357Z,84.90
2019-02-11T22:37:51.143Z,85.50
2019-02-11T22:40:19.855Z,85.40
2019-02-11T22:42:48.530Z,85.40
2019-02-11T22:45:25.582Z,85.00
2019-02-11T22:47:54.239Z,85.30
2019-02-11T22:50:22.948Z,85.40
2019-02-11T22:52:51.696Z,85.80
2019-02-11T22:55:20.366Z,86.00
2019-02-11T22:57:49.072Z,86.10
2019-02-11T23:00:46.163Z,86.40
2019-02-11T23:03:14.947Z,86.50
2019-02-11T23:05:43.785Z,85.70
2019-02-11T23:08:12.552Z,86.00
2019-02-11T23:10:41.218Z,85.20
2019-02-11T23:13:09.907Z,85.10
2019-02-11T23:15:38.614Z,85.00
2019-02-11T23:18:07.369Z,85.10
2019-02-11T23:20:36.023Z,84.00
2019-02-11T23:23:04.749Z,84.30
2019-02-11T23:25:33.420Z,84.70
2019-02-11T23:28:02.082Z,84.10
2019-02-11T23:30:30.800Z,83.70
2019-02-11T23:32:59.481Z,84.00
2019-02-11T23:35:28.127Z,84.30
2019-02-11T23:37:59.803Z,84.30
2019-02-11T23:40:28.481Z,84.50
2019-02-11T23:42:57.172Z,84.10
2019-02-11T23:45:25.896Z,84.00
2019-02-11T23:47:54.584Z,83.70
2019-02-11T23:50:23.268Z,83.70
2019-02-11T23:52:52.036Z,84.00
2019-02-11T23:55:20.711Z,84.00
2019-02-11T23:57:49.389Z,83.20
